sensor_id;sensor_type;location;lat;lon;timestamp;pressure;altitude;pressure_sealevel;temperature;humidity
30682;BME280;17439;48.092;11.842;2022-12-10T00:00:34;94065.06;;;4.18;68.99
30682;BME280;17439;48.092;11.842;2022-12-10T00:03:00;94081.16;;;4.18;69.01
30682;BME280;17439;48.092;11.842;2022-12-10T00:05:27;94077.69;;;4.17;69.22
30682;BME280;17439;48.092;11.842;2022-12-10T00:07:54;94077.69;;;4.17;69.15
30682;BME280;17439;48.092;11.842;2022-12-10T00:10:20;94084.97;;;4.17;69.19
30682;BME280;17439;48.092;11.842;2022-12-10T00:12:47;94086.53;;;4.18;69.24
30682;BME280;17439;48.092;11.842;2022-12-10T00:15:13;94084.66;;;4.18;69.38
30682;BME280;17439;48.092;11.842;2022-12-10T00:17:40;94086.53;;;4.18;69.31
30682;BME280;17439;48.092;11.842;2022-12-10T00:20:07;94080.84;;;4.20;69.42
30682;BME280;17439;48.092;11.842;2022-12-10T00:22:34;94083.53;;;4.20;69.14
30682;BME280;17439;48.092;11.842;2022-12-10T00:25:01;94073.63;;;4.20;69.19
30682;BME280;17439;48.092;11.842;2022-12-10T00:27:27;94074.41;;;4.21;68.99
30682;BME280;17439;48.092;11.842;2022-12-10T00:29:54;94079.00;;;4.20;68.91
30682;BME280;17439;48.092;11.842;2022-12-10T00:32:21;94070.13;;;4.20;68.90
30682;BME280;17439;48.092;11.842;2022-12-10T00:34:47;94077.38;;;4.19;68.99
30682;BME280;17439;48.092;11.842;2022-12-10T00:37:14;94071.25;;;4.18;69.27
30682;BME280;17439;48.092;11.842;2022-12-10T00:39:40;94070.44;;;4.18;68.98
30682;BME280;17439;48.092;11.842;2022-12-10T00:42:07;94075.00;;;4.17;68.89
30682;BME280;17439;48.092;11.842;2022-12-10T00:44:34;94078.78;;;4.16;68.98
30682;BME280;17439;48.092;11.842;2022-12-10T00:47:01;94073.41;;;4.16;69.12
30682;BME280;17439;48.092;11.842;2022-12-10T00:49:27;94076.91;;;4.17;68.92
30682;BME280;17439;48.092;11.842;2022-12-10T00:51:54;94080.69;;;4.16;68.88
30682;BME280;17439;48.092;11.842;2022-12-10T00:54:20;94092.50;;;4.15;68.96
30682;BME280;17439;48.092;11.842;2022-12-10T00:56:47;94092.50;;;4.15;69.15
30682;BME280;17439;48.092;11.842;2022-12-10T00:59:13;94106.22;;;4.13;69.30
30682;BME280;17439;48.092;11.842;2022-12-10T01:01:41;94106.50;;;4.12;69.12
30682;BME280;17439;48.092;11.842;2022-12-10T01:04:13;94103.81;;;4.12;69.12
30682;BME280;17439;48.092;11.842;2022-12-10T01:06:45;94110.31;;;4.11;69.21
30682;BME280;17439;48.092;11.842;2022-12-10T01:09:14;94108.72;;;4.10;69.23
30682;BME280;17439;48.092;11.842;2022-12-10T01:11:43;94114.06;;;4.10;69.32
30682;BME280;17439;48.092;11.842;2022-12-10T01:14:14;94116.75;;;4.10;68.95
30682;BME280;17439;48.092;11.842;2022-12-10T01:16:41;94107.94;;;4.09;69.51
30682;BME280;17439;48.092;11.842;2022-12-10T01:19:09;94109.19;;;4.12;69.20
30682;BME280;17439;48.092;11.842;2022-12-10T01:21:36;94111.88;;;4.12;69.08
30682;BME280;17439;48.092;11.842;2022-12-10T01:24:03;94108.41;;;4.11;69.05
30682;BME280;17439;48.092;11.842;2022-12-10T01:26:32;94107.63;;;4.11;68.94
30682;BME280;17439;48.092;11.842;2022-12-10T01:29:01;94114.56;;;4.12;69.16
30682;BME280;17439;48.092;11.842;2022-12-10T01:31:30;94112.19;;;4.10;69.17
30682;BME280;17439;48.092;11.842;2022-12-10T01:33:58;94101.97;;;4.12;69.39
30682;BME280;17439;48.092;11.842;2022-12-10T01:36:30;94101.44;;;4.10;68.68
30682;BME280;17439;48.092;11.842;2022-12-10T01:38:58;94116.16;;;4.13;69.36
30682;BME280;17439;48.092;11.842;2022-12-10T01:41:28;94106.50;;;4.12;69.11
30682;BME280;17439;48.092;11.842;2022-12-10T01:44:04;94104.66;;;4.12;69.21
30682;BME280;17439;48.092;11.842;2022-12-10T01:46:52;94105.44;;;4.13;68.95
30682;BME280;17439;48.092;11.842;2022-12-10T01:49:24;94109.72;;;4.14;68.45
30682;BME280;17439;48.092;11.842;2022-12-10T01:51:54;94115.84;;;4.14;68.97
30682;BME280;17439;48.092;11.842;2022-12-10T01:54:30;94118.84;;;4.13;68.59
30682;BME280;17439;48.092;11.842;2022-12-10T01:57:03;94123.41;;;4.12;68.36
30682;BME280;17439;48.092;11.842;2022-12-10T01:59:32;94121.53;;;4.13;68.94
30682;BME280;17439;48.092;11.842;2022-12-10T02:07:27;94130.16;;;4.10;68.11
30682;BME280;17439;48.092;11.842;2022-12-10T02:15:21;94145.78;;;4.08;69.16
30682;BME280;17439;48.092;11.842;2022-12-10T02:17:54;94141.97;;;4.09;69.07
30682;BME280;17439;48.092;11.842;2022-12-10T02:23:11;94132.47;;;4.03;68.64
30682;BME280;17439;48.092;11.842;2022-12-10T02:30:52;94136.03;;;4.12;69.24
30682;BME280;17439;48.092;11.842;2022-12-10T02:33:20;94121.34;;;4.09;69.33
30682;BME280;17439;48.092;11.842;2022-12-10T02:35:50;94113.28;;;4.09;69.47
30682;BME280;17439;48.092;11.842;2022-12-10T02:38:18;94111.81;;;4.03;68.40
30682;BME280;17439;48.092;11.842;2022-12-10T02:40:49;94114.06;;;4.10;69.31
30682;BME280;17439;48.092;11.842;2022-12-10T02:43:20;94117.53;;;4.10;69.33
30682;BME280;17439;48.092;11.842;2022-12-10T02:45:48;94122.59;;;4.12;69.44
30682;BME280;17439;48.092;11.842;2022-12-10T02:48:18;94113.78;;;4.11;69.60
30682;BME280;17439;48.092;11.842;2022-12-10T02:50:46;94116.94;;;4.13;69.74
30682;BME280;17439;48.092;11.842;2022-12-10T02:53:14;94113.47;;;4.13;69.94
30682;BME280;17439;48.092;11.842;2022-12-10T02:56:34;94113.47;;;4.13;68.59
30682;BME280;17439;48.092;11.842;2022-12-10T02:59:28;94116.16;;;4.13;68.46
30682;BME280;17439;48.092;11.842;2022-12-10T03:05:13;94110.19;;;4.16;68.75
30682;BME280;17439;48.092;11.842;2022-12-10T03:07:46;94108.00;;;4.18;68.82
30682;BME280;17439;48.092;11.842;2022-12-10T03:10:24;94105.31;;;4.18;68.22
30682;BME280;17439;48.092;11.842;2022-12-10T03:12:59;94109.88;;;4.17;68.54
30682;BME280;17439;48.092;11.842;2022-12-10T03:15:28;94108.00;;;4.18;69.31
30682;BME280;17439;48.092;11.842;2022-12-10T03:17:56;94095.69;;;4.17;69.58
30682;BME280;17439;48.092;11.842;2022-12-10T03:20:25;94091.88;;;4.18;69.33
30682;BME280;17439;48.092;11.842;2022-12-10T03:22:53;94093.00;;;4.17;69.33
30682;BME280;17439;48.092;11.842;2022-12-10T03:25:23;94101.06;;;4.17;69.09
30682;BME280;17439;48.092;11.842;2022-12-10T03:27:54;94108.00;;;4.18;69.31
30682;BME280;17439;48.092;11.842;2022-12-10T03:30:21;94102.63;;;4.18;69.45
30682;BME280;17439;48.092;11.842;2022-12-10T03:32:48;94102.63;;;4.18;69.43
30682;BME280;17439;48.092;11.842;2022-12-10T03:35:17;94103.75;;;4.17;69.37
30682;BME280;17439;48.092;11.842;2022-12-10T03:37:45;94107.50;;;4.16;69.36
30682;BME280;17439;48.092;11.842;2022-12-10T03:40:12;94104.81;;;4.16;69.42
30682;BME280;17439;48.092;11.842;2022-12-10T03:42:39;94110.50;;;4.14;69.56
30682;BME280;17439;48.092;11.842;2022-12-10T03:45:06;94102.44;;;4.14;69.68
30682;BME280;17439;48.092;11.842;2022-12-10T03:47:33;94094.41;;;4.14;69.68
30682;BME280;17439;48.092;11.842;2022-12-10T03:49:59;94096.00;;;4.15;69.75
30682;BME280;17439;48.092;11.842;2022-12-10T03:52:26;94090.63;;;4.15;69.41
30682;BME280;17439;48.092;11.842;2022-12-10T03:54:55;94095.69;;;4.17;69.27
30682;BME280;17439;48.092;11.842;2022-12-10T03:57:22;94103.75;;;4.17;69.44
30682;BME280;17439;48.092;11.842;2022-12-10T03:59:48;94103.75;;;4.17;69.33
30682;BME280;17439;48.092;11.842;2022-12-10T04:02:15;94098.38;;;4.17;69.34
30682;BME280;17439;48.092;11.842;2022-12-10T04:04:41;94099.94;;;4.18;69.01
30682;BME280;17439;48.092;11.842;2022-12-10T04:07:08;94091.88;;;4.18;69.05
30682;BME280;17439;48.092;11.842;2022-12-10T04:09:35;94094.56;;;4.18;68.92
30682;BME280;17439;48.092;11.842;2022-12-10T04:12:01;94097.56;;;4.16;68.82
30682;BME280;17439;48.092;11.842;2022-12-10T04:14:28;94092.50;;;4.15;68.69
30682;BME280;17439;48.092;11.842;2022-12-10T04:16:55;94103.22;;;4.15;68.83
30682;BME280;17439;48.092;11.842;2022-12-10T04:19:21;94105.44;;;4.13;68.69
30682;BME280;17439;48.092;11.842;2022-12-10T04:21:48;94107.63;;;4.11;69.05
30682;BME280;17439;48.092;11.842;2022-12-10T04:24:16;94106.81;;;4.10;68.99
30682;BME280;17439;48.092;11.842;2022-12-10T04:26:43;94107.44;;;4.07;69.07
30682;BME280;17439;48.092;11.842;2022-12-10T04:29:10;94113.59;;;4.08;68.95
30682;BME280;17439;48.092;11.842;2022-12-10T04:31:36;94112.00;;;4.07;69.03
30682;BME280;17439;48.092;11.842;2022-12-10T04:34:03;94113.59;;;4.08;68.97
30682;BME280;17439;48.092;11.842;2022-12-10T04:36:29;94109.31;;;4.07;69.08
30682;BME280;17439;48.092;11.842;2022-12-10T04:38:56;94118.47;;;4.06;69.01
30682;BME280;17439;48.092;11.842;2022-12-10T04:41:23;94113.09;;;4.06;68.89
30682;BME280;17439;48.092;11.842;2022-12-10T04:43:49;94112.28;;;4.05;68.99
30682;BME280;17439;48.092;11.842;2022-12-10T04:46:16;94096.19;;;4.05;68.92
30682;BME280;17439;48.092;11.842;2022-12-10T04:48:42;94092.25;;;4.03;68.87
30682;BME280;17439;48.092;11.842;2022-12-10T04:51:09;94097.63;;;4.03;69.04
30682;BME280;17439;48.092;11.842;2022-12-10T04:53:35;94104.06;;;4.02;68.90
30682;BME280;17439;48.092;11.842;2022-12-10T04:56:02;94107.06;;;4.00;69.14
30682;BME280;17439;48.092;11.842;2022-12-10T04:58:29;94105.16;;;4.00;69.18
30682;BME280;17439;48.092;11.842;2022-12-10T05:01:10;94100.91;;;3.99;68.54
30682;BME280;17439;48.092;11.842;2022-12-10T05:03:37;94106.25;;;3.99;69.03
30682;BME280;17439;48.092;11.842;2022-12-10T05:06:05;94105.16;;;4.00;68.71
30682;BME280;17439;48.092;11.842;2022-12-10T05:08:32;94108.13;;;3.99;68.78
30682;BME280;17439;48.092;11.842;2022-12-10T05:11:06;94110.34;;;3.97;68.32
30682;BME280;17439;48.092;11.842;2022-12-10T05:13:34;94092.66;;;3.96;68.84
30682;BME280;17439;48.092;11.842;2022-12-10T05:16:02;94098.53;;;3.98;68.58
30682;BME280;17439;48.092;11.842;2022-12-10T05:18:30;94100.69;;;3.96;68.41
30682;BME280;17439;48.092;11.842;2022-12-10T05:21:06;94102.09;;;3.93;68.29
30682;BME280;17439;48.092;11.842;2022-12-10T05:23:35;94102.88;;;3.94;68.60
30682;BME280;17439;48.092;11.842;2022-12-10T05:26:11;94106.97;;;3.91;68.32
30682;BME280;17439;48.092;11.842;2022-12-10T05:28:43;94097.34;;;3.90;68.51
30682;BME280;17439;48.092;11.842;2022-12-10T05:31:15;94111.06;;;3.89;68.27
30682;BME280;17439;48.092;11.842;2022-12-10T05:33:42;94106.47;;;3.89;68.56
30682;BME280;17439;48.092;11.842;2022-12-10T05:36:11;94110.25;;;3.88;68.77
30682;BME280;17439;48.092;11.842;2022-12-10T05:38:39;94108.66;;;3.87;68.77
30682;BME280;17439;48.092;11.842;2022-12-10T05:41:13;94108.19;;;3.85;68.41
30682;BME280;17439;48.092;11.842;2022-12-10T05:43:41;94106.28;;;3.86;68.88
30682;BME280;17439;48.092;11.842;2022-12-10T05:46:13;94111.34;;;3.87;68.50
30682;BME280;17439;48.092;11.842;2022-12-10T05:48:41;94109.75;;;3.86;68.98
30682;BME280;17439;48.092;11.842;2022-12-10T05:51:10;94116.22;;;3.85;68.99
30682;BME280;17439;48.092;11.842;2022-12-10T05:53:38;94116.53;;;3.84;69.14
30682;BME280;17439;48.092;11.842;2022-12-10T05:56:09;94122.97;;;3.83;69.06
30682;BME280;17439;48.092;11.842;2022-12-10T05:58:37;94122.19;;;3.82;69.23
30682;BME280;17439;48.092;11.842;2022-12-10T06:01:09;94119.50;;;3.82;68.74
30682;BME280;17439;48.092;11.842;2022-12-10T06:03:37;94122.97;;;3.83;69.24
30682;BME280;17439;48.092;11.842;2022-12-10T06:06:04;94122.97;;;3.83;69.47
30682;BME280;17439;48.092;11.842;2022-12-10T06:08:32;94126.94;;;3.85;69.50
30682;BME280;17439;48.092;11.842;2022-12-10T06:11:07;94128.81;;;3.85;68.76
30682;BME280;17439;48.092;11.842;2022-12-10T06:13:34;94122.38;;;3.86;69.14
30682;BME280;17439;48.092;11.842;2022-12-10T06:16:05;94127.75;;;3.86;68.67
30682;BME280;17439;48.092;11.842;2022-12-10T06:18:32;94126.34;;;3.88;69.20
30682;BME280;17439;48.092;11.842;2022-12-10T06:20:59;94132.69;;;3.92;68.63
30682;BME280;17439;48.092;11.842;2022-12-10T06:23:28;94133.28;;;3.89;68.44
30682;BME280;17439;48.092;11.842;2022-12-10T06:25:55;94139.75;;;3.88;68.68
30682;BME280;17439;48.092;11.842;2022-12-10T06:28:21;94136.25;;;3.88;68.68
30682;BME280;17439;48.092;11.842;2022-12-10T06:30:48;94143.03;;;3.85;68.84
30682;BME280;17439;48.092;11.842;2022-12-10T06:33:14;94130.72;;;3.84;68.72
30682;BME280;17439;48.092;11.842;2022-12-10T06:35:41;94128.81;;;3.85;68.75
30682;BME280;17439;48.092;11.842;2022-12-10T06:38:07;94130.72;;;3.84;68.57
30682;BME280;17439;48.092;11.842;2022-12-10T06:40:34;94129.34;;;3.87;68.11
30682;BME280;17439;48.092;11.842;2022-12-10T06:43:03;94133.88;;;3.86;67.85
30682;BME280;17439;48.092;11.842;2022-12-10T06:45:29;94132.63;;;3.84;68.03
30682;BME280;17439;48.092;11.842;2022-12-10T06:47:56;94132.91;;;3.82;67.92
30682;BME280;17439;48.092;11.842;2022-12-10T06:50:23;94138.28;;;3.82;67.80
30682;BME280;17439;48.092;11.842;2022-12-10T06:52:50;94148.19;;;3.81;67.48
30682;BME280;17439;48.092;11.842;2022-12-10T06:55:20;94141.84;;;3.77;67.31
30682;BME280;17439;48.092;11.842;2022-12-10T06:57:46;94151.88;;;3.72;67.45
30682;BME280;17439;48.092;11.842;2022-12-10T07:00:13;94149.00;;;3.68;68.11
30682;BME280;17439;48.092;11.842;2022-12-10T07:02:48;94156.56;;;3.66;68.33
30682;BME280;17439;48.092;11.842;2022-12-10T07:05:15;94155.75;;;3.66;68.22
30682;BME280;17439;48.092;11.842;2022-12-10T07:07:41;94151.19;;;3.66;68.35
30682;BME280;17439;48.092;11.842;2022-12-10T07:10:08;94157.34;;;3.67;68.30
30682;BME280;17439;48.092;11.842;2022-12-10T07:12:35;94158.41;;;3.66;68.38
30682;BME280;17439;48.092;11.842;2022-12-10T07:15:02;94152.75;;;3.67;68.24
30682;BME280;17439;48.092;11.842;2022-12-10T07:17:30;94151.97;;;3.67;68.48
30682;BME280;17439;48.092;11.842;2022-12-10T07:19:56;94151.19;;;3.66;68.29
30682;BME280;17439;48.092;11.842;2022-12-10T07:22:23;94150.38;;;3.66;68.63
30682;BME280;17439;48.092;11.842;2022-12-10T07:24:50;94150.38;;;3.66;68.78
30682;BME280;17439;48.092;11.842;2022-12-10T07:27:16;94142.34;;;3.66;68.96
30682;BME280;17439;48.092;11.842;2022-12-10T07:29:44;94135.09;;;3.66;68.99
30682;BME280;17439;48.092;11.842;2022-12-10T07:32:10;94144.44;;;3.69;69.03
30682;BME280;17439;48.092;11.842;2022-12-10T07:34:37;94143.03;;;3.71;68.85
30682;BME280;17439;48.092;11.842;2022-12-10T07:37:04;94134.69;;;3.73;68.98
30682;BME280;17439;48.092;11.842;2022-12-10T07:39:30;94132.50;;;3.75;68.90
30682;BME280;17439;48.092;11.842;2022-12-10T07:41:57;94125.75;;;3.77;69.29
30682;BME280;17439;48.092;11.842;2022-12-10T07:44:25;94125.47;;;3.79;69.24
30682;BME280;17439;48.092;11.842;2022-12-10T07:46:53;94132.91;;;3.82;69.18
30682;BME280;17439;48.092;11.842;2022-12-10T07:49:20;94132.31;;;3.85;69.34
30682;BME280;17439;48.092;11.842;2022-12-10T07:51:48;94138.94;;;3.88;69.23
30682;BME280;17439;48.092;11.842;2022-12-10T07:54:16;94141.81;;;3.91;69.30
30682;BME280;17439;48.092;11.842;2022-12-10T07:56:43;94137.44;;;3.95;69.55
30682;BME280;17439;48.092;11.842;2022-12-10T07:59:09;94129.59;;;3.99;69.61
30682;BME280;17439;48.092;11.842;2022-12-10T08:01:36;94139.41;;;4.04;69.38
30682;BME280;17439;48.092;11.842;2022-12-10T08:04:03;94138.81;;;4.07;69.30
30682;BME280;17439;48.092;11.842;2022-12-10T08:06:29;94140.13;;;4.09;69.25
30682;BME280;17439;48.092;11.842;2022-12-10T08:08:58;94141.91;;;4.14;68.86
30682;BME280;17439;48.092;11.842;2022-12-10T08:11:25;94145.53;;;4.18;68.98
30682;BME280;17439;48.092;11.842;2022-12-10T08:13:52;94139.09;;;4.19;68.91
30682;BME280;17439;48.092;11.842;2022-12-10T08:16:24;94129.66;;;4.22;68.81
30682;BME280;17439;48.092;11.842;2022-12-10T08:18:51;94130.13;;;4.24;68.89
30682;BME280;17439;48.092;11.842;2022-12-10T08:21:20;94132.69;;;4.29;68.91
30682;BME280;17439;48.092;11.842;2022-12-10T08:23:47;94133.88;;;4.36;67.79
30682;BME280;17439;48.092;11.842;2022-12-10T08:26:17;94136.56;;;4.36;67.31
30682;BME280;17439;48.092;11.842;2022-12-10T08:28:44;94144.91;;;4.35;67.67
30682;BME280;17439;48.092;11.842;2022-12-10T08:31:11;94147.28;;;4.36;67.67
30682;BME280;17439;48.092;11.842;2022-12-10T08:33:39;94139.25;;;4.36;67.86
30682;BME280;17439;48.092;11.842;2022-12-10T08:36:07;94142.41;;;4.39;67.33
30682;BME280;17439;48.092;11.842;2022-12-10T08:38:35;94146.69;;;4.40;67.32
30682;BME280;17439;48.092;11.842;2022-12-10T08:41:11;94151.88;;;4.36;66.66
30682;BME280;17439;48.092;11.842;2022-12-10T08:43:38;94162.59;;;4.36;67.71
30682;BME280;17439;48.092;11.842;2022-12-10T08:46:06;94162.50;;;4.41;66.68
30682;BME280;17439;48.092;11.842;2022-12-10T08:48:34;94161.19;;;4.39;66.75
30682;BME280;17439;48.092;11.842;2022-12-10T08:51:02;94155.34;;;4.36;66.73
30682;BME280;17439;48.092;11.842;2022-12-10T08:53:30;94161.31;;;4.33;66.87
30682;BME280;17439;48.092;11.842;2022-12-10T08:55:58;94158.63;;;4.33;67.07
30682;BME280;17439;48.092;11.842;2022-12-10T08:58:24;94164.00;;;4.33;67.07
30682;BME280;17439;48.092;11.842;2022-12-10T09:00:51;94162.41;;;4.32;67.35
30682;BME280;17439;48.092;11.842;2022-12-10T09:03:18;94167.75;;;4.32;67.25
30682;BME280;17439;48.092;11.842;2022-12-10T09:05:44;94167.75;;;4.32;67.58
30682;BME280;17439;48.092;11.842;2022-12-10T09:08:11;94169.66;;;4.32;67.88
30682;BME280;17439;48.092;11.842;2022-12-10T09:10:38;94177.41;;;4.33;67.80
30682;BME280;17439;48.092;11.842;2022-12-10T09:13:06;94167.47;;;4.34;67.78
30682;BME280;17439;48.092;11.842;2022-12-10T09:15:33;94175.72;;;4.38;67.73
30682;BME280;17439;48.092;11.842;2022-12-10T09:17:59;94179.38;;;4.42;67.21
30682;BME280;17439;48.092;11.842;2022-12-10T09:20:26;94179.38;;;4.42;67.24
30682;BME280;17439;48.092;11.842;2022-12-10T09:22:52;94175.59;;;4.43;67.23
30682;BME280;17439;48.092;11.842;2022-12-10T09:25:19;94187.13;;;4.43;67.30
30682;BME280;17439;48.092;11.842;2022-12-10T09:27:46;94180.97;;;4.43;67.66
30682;BME280;17439;48.092;11.842;2022-12-10T09:30:12;94184.44;;;4.43;68.02
30682;BME280;17439;48.092;11.842;2022-12-10T09:32:39;94184.63;;;4.47;68.42
30682;BME280;17439;48.092;11.842;2022-12-10T09:35:06;94190.19;;;4.50;68.78
30682;BME280;17439;48.092;11.842;2022-12-10T09:37:32;94182.31;;;4.54;68.63
30682;BME280;17439;48.092;11.842;2022-12-10T09:39:59;94187.56;;;4.59;68.05
30682;BME280;17439;48.092;11.842;2022-12-10T09:42:48;94193.13;;;4.63;67.45
30682;BME280;17439;48.092;11.842;2022-12-10T09:50:45;94182.69;;;4.61;66.10
30682;BME280;17439;48.092;11.842;2022-12-10T09:53:15;94180.50;;;4.63;67.16
30682;BME280;17439;48.092;11.842;2022-12-10T09:55:46;94180.50;;;4.63;66.51
30682;BME280;17439;48.092;11.842;2022-12-10T09:58:39;94184.59;;;4.61;66.14
30682;BME280;17439;48.092;11.842;2022-12-10T10:01:12;94184.41;;;4.57;66.46
30682;BME280;17439;48.092;11.842;2022-12-10T10:03:41;94184.88;;;4.59;67.53
30682;BME280;17439;48.092;11.842;2022-12-10T10:06:12;94186.00;;;4.58;66.89
30682;BME280;17439;48.092;11.842;2022-12-10T10:08:45;94183.00;;;4.60;67.12
30682;BME280;17439;48.092;11.842;2022-12-10T10:11:19;94175.75;;;4.60;66.58
30682;BME280;17439;48.092;11.842;2022-12-10T10:14:01;94175.25;;;4.58;66.48
30682;BME280;17439;48.092;11.842;2022-12-10T10:16:37;94180.63;;;4.58;66.15
30682;BME280;17439;48.092;11.842;2022-12-10T10:19:11;94180.63;;;4.58;66.13
30682;BME280;17439;48.092;11.842;2022-12-10T10:21:43;94181.25;;;4.55;66.05
30682;BME280;17439;48.092;11.842;2022-12-10T10:24:19;94168.13;;;4.53;65.74
30682;BME280;17439;48.092;11.842;2022-12-10T10:26:47;94177.56;;;4.51;65.62
30682;BME280;17439;48.092;11.842;2022-12-10T10:29:17;94174.41;;;4.49;65.69
30682;BME280;17439;48.092;11.842;2022-12-10T10:31:45;94179.84;;;4.44;65.99
30682;BME280;17439;48.092;11.842;2022-12-10T10:34:18;94175.72;;;4.38;65.46
30682;BME280;17439;48.092;11.842;2022-12-10T10:36:45;94173.34;;;4.36;66.72
30682;BME280;17439;48.092;11.842;2022-12-10T10:41:47;94174.72;;;4.33;67.01
30682;BME280;17439;48.092;11.842;2022-12-10T10:44:26;94181.69;;;4.34;66.95
30682;BME280;17439;48.092;11.842;2022-12-10T10:46:55;94175.50;;;4.34;67.19
30682;BME280;17439;48.092;11.842;2022-12-10T10:52:12;94167.38;;;4.39;66.43
30682;BME280;17439;48.092;11.842;2022-12-10T10:54:45;94177.81;;;4.41;66.38
30682;BME280;17439;48.092;11.842;2022-12-10T10:57:18;94175.13;;;4.41;66.23
30682;BME280;17439;48.092;11.842;2022-12-10T10:59:46;94165.47;;;4.40;66.54
30682;BME280;17439;48.092;11.842;2022-12-10T11:05:05;94153.66;;;4.41;66.49
30682;BME280;17439;48.092;11.842;2022-12-10T11:07:33;94154.44;;;4.41;66.05
30682;BME280;17439;48.092;11.842;2022-12-10T11:10:03;94153.66;;;4.41;66.30
30682;BME280;17439;48.092;11.842;2022-12-10T11:12:39;94153.94;;;4.39;66.44
30682;BME280;17439;48.092;11.842;2022-12-10T11:17:53;94147.16;;;4.42;66.11
30682;BME280;17439;48.092;11.842;2022-12-10T11:22:52;94149.25;;;4.45;66.08
30682;BME280;17439;48.092;11.842;2022-12-10T11:30:31;94155.50;;;4.54;66.77
30682;BME280;17439;48.092;11.842;2022-12-10T11:33:25;94151.59;;;4.60;65.77
30682;BME280;17439;48.092;11.842;2022-12-10T11:41:39;94155.38;;;4.59;66.10
30682;BME280;17439;48.092;11.842;2022-12-10T11:46:59;94158.34;;;4.58;66.07
30682;BME280;17439;48.092;11.842;2022-12-10T11:49:35;94147.00;;;4.61;66.57
30682;BME280;17439;48.092;11.842;2022-12-10T11:52:28;94148.78;;;4.65;66.38
30682;BME280;17439;48.092;11.842;2022-12-10T11:57:55;94142.97;;;4.72;65.26
30682;BME280;17439;48.092;11.842;2022-12-10T12:00:39;94145.66;;;4.72;64.99
30682;BME280;17439;48.092;11.842;2022-12-10T12:06:04;94147.38;;;4.68;65.66
30682;BME280;17439;48.092;11.842;2022-12-10T12:11:22;94144.09;;;4.71;66.09
30682;BME280;17439;48.092;11.842;2022-12-10T12:13:56;94151.34;;;4.70;66.10
30682;BME280;17439;48.092;11.842;2022-12-10T12:16:29;94156.09;;;4.73;66.46
30682;BME280;17439;48.092;11.842;2022-12-10T12:19:14;94153.78;;;4.81;65.54
30682;BME280;17439;48.092;11.842;2022-12-10T12:21:44;94156.94;;;4.83;65.73
30682;BME280;17439;48.092;11.842;2022-12-10T12:24:21;94155.88;;;4.84;65.56
30682;BME280;17439;48.092;11.842;2022-12-10T12:26:49;94148.28;;;4.86;64.87
30682;BME280;17439;48.092;11.842;2022-12-10T12:29:26;94156.66;;;4.84;64.63
30682;BME280;17439;48.092;11.842;2022-12-10T12:32:07;94161.03;;;4.80;65.09
30682;BME280;17439;48.092;11.842;2022-12-10T12:34:42;94156.28;;;4.77;65.57
30682;BME280;17439;48.092;11.842;2022-12-10T12:37:14;94166.84;;;4.73;65.53
30682;BME280;17439;48.092;11.842;2022-12-10T12:39:58;94169.81;;;4.72;65.45
30682;BME280;17439;48.092;11.842;2022-12-10T12:42:44;94168.25;;;4.71;65.60
30682;BME280;17439;48.092;11.842;2022-12-10T12:45:20;94177.09;;;4.71;65.78
30682;BME280;17439;48.092;11.842;2022-12-10T12:50:45;94182.78;;;4.70;65.67
30682;BME280;17439;48.092;11.842;2022-12-10T12:53:18;94181.16;;;4.69;66.04
30682;BME280;17439;48.092;11.842;2022-12-10T12:56:05;94187.66;;;4.68;65.60
30682;BME280;17439;48.092;11.842;2022-12-10T12:58:51;94182.91;;;4.65;65.85
30682;BME280;17439;48.092;11.842;2022-12-10T13:01:36;94179.91;;;4.66;66.37
30682;BME280;17439;48.092;11.842;2022-12-10T13:04:06;94179.41;;;4.64;66.48
30682;BME280;17439;48.092;11.842;2022-12-10T13:06:38;94188.88;;;4.62;66.07
30682;BME280;17439;48.092;11.842;2022-12-10T13:11:43;94182.22;;;4.59;66.24
30682;BME280;17439;48.092;11.842;2022-12-10T13:42:57;94241.94;;;4.14;66.73
30682;BME280;17439;48.092;11.842;2022-12-10T13:45:29;94239.72;;;4.16;67.20
30682;BME280;17439;48.092;11.842;2022-12-10T13:48:22;94238.47;;;4.14;66.45
30682;BME280;17439;48.092;11.842;2022-12-10T13:53:35;94247.09;;;4.11;66.55
30682;BME280;17439;48.092;11.842;2022-12-10T13:56:28;94240.13;;;4.10;66.90
30682;BME280;17439;48.092;11.842;2022-12-10T14:07:19;94265.75;;;4.02;66.23
30682;BME280;17439;48.092;11.842;2022-12-10T14:09:50;94274.22;;;3.95;66.47
30682;BME280;17439;48.092;11.842;2022-12-10T14:12:41;94271.03;;;3.93;66.49
30682;BME280;17439;48.092;11.842;2022-12-10T14:15:18;94274.91;;;3.87;66.54
30682;BME280;17439;48.092;11.842;2022-12-10T14:17:46;94266.38;;;3.85;67.22
30682;BME280;17439;48.092;11.842;2022-12-10T14:20:23;94275.00;;;3.82;67.11
30682;BME280;17439;48.092;11.842;2022-12-10T14:22:53;94274.59;;;3.75;67.34
30682;BME280;17439;48.092;11.842;2022-12-10T14:25:22;94274.50;;;3.80;67.41
30682;BME280;17439;48.092;11.842;2022-12-10T14:27:50;94286.03;;;3.80;67.44
30682;BME280;17439;48.092;11.842;2022-12-10T14:30:21;94290.09;;;3.78;67.47
30682;BME280;17439;48.092;11.842;2022-12-10T14:32:49;94292.78;;;3.78;67.44
30682;BME280;17439;48.092;11.842;2022-12-10T14:35:21;94293.34;;;3.75;67.34
30682;BME280;17439;48.092;11.842;2022-12-10T14:37:53;94297.94;;;3.74;67.53
30682;BME280;17439;48.092;11.842;2022-12-10T14:40:28;94290.97;;;3.73;67.44
30682;BME280;17439;48.092;11.842;2022-12-10T14:43:07;94290.19;;;3.73;67.60
30682;BME280;17439;48.092;11.842;2022-12-10T14:45:48;94303.69;;;3.68;67.53
30682;BME280;17439;48.092;11.842;2022-12-10T14:48:15;94309.81;;;3.68;67.95
30682;BME280;17439;48.092;11.842;2022-12-10T14:50:43;94309.53;;;3.70;67.99
30682;BME280;17439;48.092;11.842;2022-12-10T14:53:14;94309.03;;;3.68;67.74
30682;BME280;17439;48.092;11.842;2022-12-10T14:55:42;94310.63;;;3.69;67.76
30682;BME280;17439;48.092;11.842;2022-12-10T14:58:26;94319.78;;;3.68;67.57
30682;BME280;17439;48.092;11.842;2022-12-10T15:00:55;94324.84;;;3.69;67.68
30682;BME280;17439;48.092;11.842;2022-12-10T15:03:34;94336.34;;;3.70;67.34